createdAt,value
2023-04-07T00:00:04.189Z,100.00
2023-04-07T00:05:05.863Z,100.00
2023-04-07T00:10:07.754Z,100.00
2023-04-07T00:15:09.326Z,100.00
2023-04-07T00:20:10.889Z,100.00
2023-04-07T00:25:14.038Z,100.00
2023-04-07T00:30:15.542Z,100.00
2023-04-07T00:35:17.173Z,100.00
2023-04-07T00:40:18.500Z,100.00
2023-04-07T00:45:19.904Z,100.00
2023-04-07T00:50:21.240Z,100.00
2023-04-07T00:55:22.797Z,100.00
2023-04-07T01:00:24.128Z,100.00
2023-04-07T01:05:38.829Z,100.00
2023-04-07T01:10:40.808Z,100.00
2023-04-07T01:15:43.577Z,100.00
2023-04-07T01:20:46.229Z,100.00
2023-04-07T01:25:54.893Z,100.00
2023-04-07T01:30:58.251Z,100.00
2023-04-07T01:36:01.044Z,100.00
2023-04-07T01:41:03.298Z,100.00
2023-04-07T01:46:05.307Z,100.00
2023-04-07T01:51:07.812Z,100.00
2023-04-07T01:56:09.176Z,100.00
2023-04-07T02:01:10.530Z,100.00
2023-04-07T02:06:13.214Z,100.00
2023-04-07T02:11:18.160Z,100.00
2023-04-07T02:16:20.481Z,100.00
2023-04-07T02:21:22.802Z,100.00
2023-04-07T02:26:24.122Z,100.00
2023-04-07T02:31:25.452Z,100.00
2023-04-07T02:36:27.153Z,100.00
2023-04-07T02:41:28.548Z,100.00
2023-04-07T02:46:30.107Z,100.00
2023-04-07T02:51:31.916Z,100.00
2023-04-07T02:56:33.326Z,100.00
2023-04-07T03:01:36.328Z,100.00
2023-04-07T03:06:37.797Z,100.00
2023-04-07T03:11:39.135Z,100.00
2023-04-07T03:16:40.474Z,100.00
2023-04-07T03:21:41.919Z,100.00
2023-04-07T03:26:43.250Z,100.00
2023-04-07T03:31:44.657Z,100.00
2023-04-07T03:36:46.015Z,100.00
2023-04-07T03:41:47.347Z,100.00
2023-04-07T03:46:50.525Z,100.00
2023-04-07T03:51:51.831Z,100.00
2023-04-07T03:56:53.145Z,100.00
2023-04-07T04:01:54.686Z,100.00
2023-04-07T04:06:56.085Z,100.00
2023-04-07T04:11:57.714Z,100.00
2023-04-07T04:16:59.065Z,100.00
2023-04-07T04:22:00.461Z,100.00
2023-04-07T04:27:01.955Z,100.00
2023-04-07T04:32:03.298Z,100.00
2023-04-07T04:37:04.630Z,100.00
2023-04-07T04:42:06.050Z,100.00
2023-04-07T04:47:07.484Z,100.00
2023-04-07T04:52:08.839Z,100.00
2023-04-07T04:57:10.411Z,100.00
2023-04-07T05:02:11.930Z,100.00
2023-04-07T05:07:13.352Z,100.00
2023-04-07T05:12:15.642Z,100.00
2023-04-07T05:17:16.973Z,100.00
2023-04-07T05:22:18.330Z,100.00
2023-04-07T05:27:19.659Z,100.00
2023-04-07T05:32:21.192Z,100.00
2023-04-07T05:37:22.680Z,100.00
2023-04-07T05:42:24.137Z,100.00
2023-04-07T05:47:25.506Z,100.00
2023-04-07T05:52:26.919Z,100.00
2023-04-07T05:57:28.374Z,100.00
2023-04-07T06:02:29.869Z,100.00
2023-04-07T06:07:31.354Z,100.00
2023-04-07T06:12:32.687Z,100.00
2023-04-07T06:17:34.036Z,100.00
2023-04-07T06:22:35.882Z,100.00
2023-04-07T06:27:37.269Z,100.00
2023-04-07T06:32:38.714Z,100.00
2023-04-07T06:37:40.401Z,100.00
2023-04-07T06:42:41.890Z,100.00
2023-04-07T06:47:43.313Z,100.00
2023-04-07T06:52:44.664Z,100.00
2023-04-07T06:57:46.218Z,100.00
2023-04-07T07:02:47.624Z,100.00
2023-04-07T07:07:49.455Z,100.00
2023-04-07T07:12:51.069Z,100.00
2023-04-07T07:17:52.423Z,100.00
2023-04-07T07:22:53.814Z,100.00
2023-04-07T07:27:55.179Z,100.00
2023-04-07T07:32:56.617Z,100.00
2023-04-07T07:37:58.016Z,100.00
2023-04-07T07:43:00.303Z,100.00
2023-04-07T07:48:01.741Z,100.00
2023-04-07T07:53:03.275Z,100.00
2023-04-07T07:58:04.615Z,100.00
2023-04-07T08:03:06.082Z,100.00
2023-04-07T08:08:07.741Z,100.00
2023-04-07T08:13:09.115Z,100.00
2023-04-07T08:18:10.576Z,100.00
2023-04-07T08:23:12.140Z,100.00
2023-04-07T08:28:13.451Z,100.00
2023-04-07T08:33:14.770Z,100.00
2023-04-07T08:38:16.182Z,100.00
2023-04-07T08:43:19.392Z,100.00
2023-04-07T08:48:23.148Z,100.00
2023-04-07T08:53:29.529Z,100.00
2023-04-07T08:58:31.010Z,100.00
2023-04-07T09:03:33.834Z,100.00
2023-04-07T09:08:35.308Z,100.00
2023-04-07T09:13:36.611Z,100.00
2023-04-07T09:18:37.920Z,100.00
2023-04-07T09:23:40.925Z,100.00
2023-04-07T09:28:42.866Z,100.00
2023-04-07T09:33:44.170Z,100.00
2023-04-07T09:38:46.118Z,100.00
2023-04-07T09:43:48.272Z,100.00
2023-04-07T09:49:00.961Z,100.00
2023-04-07T09:54:02.281Z,100.00
2023-04-07T09:59:04.480Z,100.00
2023-04-07T10:04:06.303Z,100.00
2023-04-07T10:09:07.746Z,100.00
2023-04-07T10:14:12.487Z,100.00
2023-04-07T10:19:14.257Z,100.00
2023-04-07T10:24:41.868Z,100.00
2023-04-07T10:29:44.849Z,100.00
2023-04-07T10:34:55.802Z,100.00
2023-04-07T10:40:15.703Z,100.00
2023-04-07T10:45:17.126Z,100.00
2023-04-07T10:50:19.605Z,100.00
2023-04-07T10:55:50.229Z,100.00
2023-04-07T11:01:00.642Z,100.00
2023-04-07T11:06:09.183Z,100.00
2023-04-07T11:11:11.709Z,100.00
2023-04-07T11:16:13.584Z,100.00
2023-04-07T11:21:18.246Z,100.00
2023-04-07T11:26:19.599Z,100.00
2023-04-07T11:31:25.101Z,100.00
2023-04-07T11:36:27.188Z,100.00
2023-04-07T11:41:30.674Z,100.00
2023-04-07T11:46:32.203Z,100.00
2023-04-07T11:51:33.570Z,100.00
2023-04-07T11:56:47.453Z,100.00
2023-04-07T12:01:49.465Z,100.00
2023-04-07T12:06:51.509Z,100.00
2023-04-07T12:11:53.343Z,100.00
2023-04-07T12:16:58.830Z,99.89
2023-04-07T12:22:00.580Z,97.62
2023-04-07T12:27:02.432Z,94.44
2023-04-07T12:32:07.013Z,96.19
2023-04-07T12:37:08.411Z,96.22
2023-04-07T12:42:11.884Z,93.82
2023-04-07T12:47:13.240Z,95.41
2023-04-07T12:52:14.680Z,95.98
2023-04-07T12:57:16.139Z,97.09
2023-04-07T13:02:19.169Z,100.00
2023-04-07T13:07:21.951Z,100.00
2023-04-07T13:12:23.930Z,100.00
2023-04-07T13:17:25.312Z,100.00
2023-04-07T13:22:26.634Z,100.00
2023-04-07T13:27:28.081Z,98.44
2023-04-07T13:32:29.371Z,98.47
2023-04-07T13:37:30.703Z,100.00
2023-04-07T13:42:32.008Z,100.00
2023-04-07T13:47:34.599Z,100.00
2023-04-07T13:52:36.280Z,100.00
2023-04-07T13:57:37.699Z,100.00
2023-04-07T14:02:39.356Z,100.00
2023-04-07T14:07:40.705Z,100.00
2023-04-07T14:12:42.080Z,100.00
2023-04-07T14:17:43.402Z,100.00
2023-04-07T14:22:44.723Z,100.00
2023-04-07T14:27:46.108Z,100.00
2023-04-07T14:32:47.505Z,100.00
2023-04-07T14:37:48.819Z,100.00
2023-04-07T14:42:50.334Z,100.00
2023-04-07T14:47:51.800Z,100.00
2023-04-07T14:52:53.653Z,98.33
2023-04-07T14:57:55.028Z,97.51
2023-04-07T15:02:56.472Z,97.48
2023-04-07T15:07:58.692Z,97.10
2023-04-07T15:13:00.056Z,98.04
2023-04-07T15:18:01.528Z,99.16
2023-04-07T15:23:03.424Z,100.00
2023-04-07T15:28:04.816Z,100.00
2023-04-07T15:33:06.197Z,100.00
2023-04-07T15:38:07.540Z,100.00
2023-04-07T15:43:11.099Z,100.00
2023-04-07T15:48:13.090Z,100.00
2023-04-07T15:53:14.422Z,100.00
2023-04-07T15:58:15.806Z,100.00
2023-04-07T16:03:17.483Z,100.00
2023-04-07T16:08:19.108Z,100.00
2023-04-07T16:13:20.631Z,100.00
2023-04-07T16:18:22.050Z,100.00
2023-04-07T16:23:23.564Z,100.00
2023-04-07T16:28:24.909Z,100.00
2023-04-07T16:33:28.065Z,100.00
2023-04-07T16:38:29.427Z,100.00
2023-04-07T16:43:30.825Z,100.00
2023-04-07T16:48:32.143Z,100.00
2023-04-07T16:53:33.452Z,100.00
2023-04-07T16:58:34.760Z,100.00
2023-04-07T17:03:36.727Z,100.00
2023-04-07T17:08:38.608Z,100.00
2023-04-07T17:13:40.340Z,100.00
2023-04-07T17:18:41.702Z,100.00
2023-04-07T17:23:43.474Z,100.00
2023-04-07T17:28:45.861Z,100.00
2023-04-07T17:33:47.878Z,100.00
2023-04-07T17:38:49.382Z,100.00
2023-04-07T17:43:50.962Z,100.00
2023-04-07T17:48:52.299Z,100.00
2023-04-07T17:53:54.091Z,100.00
2023-04-07T17:58:55.716Z,100.00
2023-04-07T18:03:57.362Z,100.00
2023-04-07T18:09:00.692Z,100.00
2023-04-07T18:14:02.255Z,100.00
2023-04-07T18:19:03.597Z,100.00
2023-04-07T18:24:05.015Z,100.00
2023-04-07T18:29:09.528Z,100.00
2023-04-07T18:34:11.837Z,100.00
2023-04-07T18:39:13.903Z,100.00
2023-04-07T18:44:15.226Z,100.00
2023-04-07T18:49:17.081Z,100.00
2023-04-07T18:54:18.386Z,100.00
2023-04-07T18:59:20.225Z,100.00
2023-04-07T19:04:21.585Z,100.00
2023-04-07T19:09:22.956Z,100.00
2023-04-07T19:14:24.303Z,100.00
2023-04-07T19:19:25.997Z,100.00
2023-04-07T19:24:27.348Z,100.00
2023-04-07T19:29:29.227Z,100.00
2023-04-07T19:34:30.740Z,100.00
2023-04-07T19:39:32.148Z,100.00
2023-04-07T19:44:34.317Z,100.00
2023-04-07T19:49:36.333Z,100.00
2023-04-07T19:54:37.630Z,100.00
2023-04-07T19:59:38.951Z,100.00
2023-04-07T20:04:40.401Z,100.00
2023-04-07T20:09:41.710Z,100.00
2023-04-07T20:14:43.323Z,100.00
2023-04-07T20:19:44.901Z,100.00
2023-04-07T20:24:46.232Z,100.00
2023-04-07T20:29:47.548Z,100.00
2023-04-07T20:34:51.537Z,100.00
2023-04-07T20:39:55.464Z,100.00
2023-04-07T20:45:02.333Z,100.00
2023-04-07T20:50:03.802Z,100.00
2023-04-07T20:55:05.902Z,100.00
2023-04-07T21:00:07.937Z,100.00
2023-04-07T21:05:09.363Z,100.00
2023-04-07T21:10:10.794Z,100.00
2023-04-07T21:15:12.203Z,100.00
2023-04-07T21:20:13.582Z,100.00
2023-04-07T21:25:14.962Z,100.00
2023-04-07T21:30:16.662Z,100.00
2023-04-07T21:35:19.642Z,100.00
2023-04-07T21:40:21.067Z,100.00
2023-04-07T21:45:22.514Z,100.00
2023-04-07T21:50:24.349Z,100.00
2023-04-07T21:55:25.683Z,100.00
2023-04-07T22:00:27.060Z,100.00
2023-04-07T22:05:28.394Z,100.00
2023-04-07T22:10:29.775Z,100.00
2023-04-07T22:15:31.191Z,100.00
2023-04-07T22:20:32.660Z,100.00
2023-04-07T22:25:33.987Z,100.00
2023-04-07T22:30:35.374Z,100.00
2023-04-07T22:35:36.764Z,100.00
2023-04-07T22:40:38.110Z,100.00
2023-04-07T22:45:39.473Z,100.00
2023-04-07T22:50:41.183Z,100.00
2023-04-07T22:55:42.505Z,100.00
2023-04-07T23:00:43.930Z,100.00
2023-04-07T23:05:45.525Z,100.00
2023-04-07T23:10:46.838Z,100.00
2023-04-07T23:15:48.196Z,100.00
2023-04-07T23:20:51.188Z,100.00
2023-04-07T23:25:52.504Z,100.00
2023-04-07T23:30:54.871Z,100.00
2023-04-07T23:35:56.237Z,100.00
2023-04-07T23:40:57.648Z,100.00
2023-04-07T23:45:59.269Z,100.00
2023-04-07T23:51:00.572Z,100.00
2023-04-07T23:56:01.970Z,100.00
